Nearby METAR Reports

 

KOXC - Oxford/Waterbury, Connecticut, USA
Distance from station: SE 8mi, 12km
Updated: Wed, 20-Nov-2019 7:36am EST
Overcast
Overcast
 Wind from NW
Wind: NW 7 mph , 11 km/h
Temperature: 36°F , 2°C
Wind Chill: 30°F , -1°C
Dew Point: 34°F , 1°C
Humidity: 93%
Barometer: 29.89 inHg , 1012.2 hPa
Clouds: Overcast
Visibility: 10 miles , 16 km
Cloud details: Mostly cloudy 1400 ft
Overcast 2000 ft
2019/11/20 12:36 KOXC 201236Z 32006KT 10SM BKN014 OVC020 02/01 A2989 RMK AO2
KDXR - Danbury, Connecticut, USA
Distance from station: SW 19mi, 30km
Updated: Wed, 20-Nov-2019 6:53am EST
Overcast
Overcast
 Wind from NW
Wind: NW 5 mph , 7 km/h
Temperature: 36°F , 2°C
Wind Chill: 32°F , 0°C
Dew Point: 32°F , 0°C
Humidity: 87%
Barometer: 29.90 inHg , 1012.5 hPa
Clouds: Overcast
Visibility: 10 miles , 16 km
Cloud details: Mostly cloudy 1300 ft
Overcast 2700 ft
2019/11/20 11:53 KDXR 201153Z 32004KT 10SM BKN013 OVC027 02/00 A2990 RMK AO2 SLP129 T00220000 10039 20022 53014
 
KMMK - Meriden, Connecticut, USA
Distance from station: E 20mi, 33km
Updated: Wed, 20-Nov-2019 6:53am EST
Overcast
Overcast
 Wind from NNW
Wind: NNW 6 mph , 9 km/h
Temperature: 39°F , 4°C
Wind Chill: 35°F , 2°C
Dew Point: 34°F , 1°C
Humidity: 81%
Barometer: 29.89 inHg , 1012.2 hPa
Clouds: Overcast
Visibility: 10 miles , 16 km
Cloud details: Overcast 1400 ft
2019/11/20 11:53 KMMK 201153Z AUTO 34005KT 10SM OVC014 04/01 A2989 RMK AO2 SLP123 T00390011 10044 20039 53013
KBDR - Bridgeport, Connecticut, USA
Distance from station: S 27mi, 44km
Updated: Wed, 20-Nov-2019 6:52am EST
Overcast
Overcast
 Wind from N
Wind: N 10 mph , 17 km/h
Temperature: 39°F , 4°C
Wind Chill: 32°F , 0°C
Dew Point: 34°F , 1°C
Humidity: 81%
Barometer: 29.89 inHg , 1012.2 hPa
Clouds: Overcast
Visibility: 10 miles , 16 km
Cloud details: Overcast 3800 ft
2019/11/20 11:52 KBDR 201152Z 35009KT 10SM OVC038 04/01 A2989 RMK AO2 RAE02 SLP121 P0000 60000 T00440011 10056 20044 53013
 
KHVN - New Haven/Tweed, Connecticut, USA
Distance from station: SE 27mi, 44km
Updated: Wed, 20-Nov-2019 6:53am EST
Overcast
Overcast
 Wind from NNW
Wind: NNW 8 mph , 13 km/h
Temperature: 43°F , 6°C
Wind Chill: 38°F , 3°C
Dew Point: 36°F , 2°C
Humidity: 76%
Barometer: 29.88 inHg , 1011.9 hPa
Clouds: Overcast
Visibility: 10 miles , 16 km
Cloud details: Overcast 3400 ft
2019/11/20 11:53 KHVN 201153Z 33007KT 10SM OVC034 06/02 A2988 RMK AO2 SLP119 T00610017 10067 20061 53010
KHFD - Hartford/Brainar, Connecticut, USA
Distance from station: ENE 32mi, 52km
Updated: Wed, 20-Nov-2019 7:17am EST
Overcast
Overcast
 Wind from NNE
Wind: NNE 8 mph , 13 km/h
Temperature: 39°F , 4°C
Wind Chill: 33°F , 1°C
Dew Point: 36°F , 2°C
Humidity: 87%
Barometer: 29.90 inHg , 1012.5 hPa
Clouds: Overcast
Visibility: 10 miles , 16 km
Cloud details: Mostly cloudy 1300 ft
Overcast 2500 ft
2019/11/20 12:17 KHFD 201217Z 02007KT 10SM BKN013 OVC025 04/02 A2990 RMK AO2 T00440022
 
KPOU - Poughkeepsie, New York, USA
Distance from station: W 35mi, 56km
Updated: Wed, 20-Nov-2019 6:53am EST
Overcast
Overcast
 Wind from NNW
Wind: NNW 5 mph , 7 km/h
Temperature: 37°F , 3°C
Wind Chill: 33°F , 1°C
Dew Point: 30°F , -1°C
Humidity: 75%
Barometer: 29.93 inHg , 1013.5 hPa
Clouds: Overcast
Visibility: 10 miles , 16 km
Cloud details: Overcast 2500 ft
2019/11/20 11:53 KPOU 201153Z 34004KT 10SM OVC025 03/M01 A2993 RMK AO2 SLP132 T00281011 10033 20022 53016
KBDL - Windsor Locks, Connecticut, USA
Distance from station: NE 38mi, 62km
Updated: Wed, 20-Nov-2019 7:30am EST
Light drizzle, Mist, Overcast
Light drizzle, Mist, Overcast
 Wind from N
Wind: N 6 mph , 9 km/h
Temperature: 41°F , 5°C
Wind Chill: 37°F , 3°C
Dew Point: 36°F , 2°C
Humidity: 81%
Barometer: 29.90 inHg , 1012.5 hPa
Summary: Light drizzle, Mist
Clouds: Overcast
Visibility: 3 miles , 5 km
Cloud details: Mostly cloudy 800 ft
Overcast 1400 ft
2019/11/20 12:30 KBDL 201230Z 35005KT 3SM -DZ BR BKN008 OVC014 05/02 A2990 RMK AO2 SFC VIS 4 DZB26 P0000 T00500022
 
KSNC - Chester, Connecticut, USA
Distance from station: ESE 39mi, 63km
Updated: Wed, 20-Nov-2019 7:35am EST
Overcast
Overcast
 Wind from varies
Wind: varies 7 mph , 11 km/h
Temperature: 39°F , 4°C
Wind Chill: 34°F , 1°C
Dew Point: 37°F , 3°C
Humidity: 93%
Barometer: 29.87 inHg , 1011.5 hPa
Clouds: Overcast
Visibility: 9 miles , 14 km
Cloud details: Mostly cloudy 600 ft
Overcast 2000 ft
2019/11/20 12:35 KSNC 201235Z AUTO VRB06KT 9SM BKN006 OVC020 04/03 A2987 RMK AO2
KHPN - White Plains, New York, USA
Distance from station: SW 42mi, 67km
Updated: Wed, 20-Nov-2019 6:56am EST
Mostly cloudy
Mostly cloudy
 Wind from NW
Wind: NW 10 mph , 17 km/h
Temperature: 37°F , 3°C
Wind Chill: 30°F , -1°C
Dew Point: 28°F , -2°C
Humidity: 70%
Barometer: 29.89 inHg , 1012.2 hPa
Clouds: Mostly cloudy
Visibility: 10 miles , 16 km
Cloud details: Mostly cloudy 3300 ft
2019/11/20 11:56 KHPN 201156Z 32009KT 10SM BKN033 03/M02 A2989 RMK AO2 SLP127 T00281017 10044 20028 53014
 
KSWF - Newburgh/Stewart, New York, USA
Distance from station: W 45mi, 72km
Updated: Wed, 20-Nov-2019 7:45am EST
Overcast
Overcast
 Wind from calm
Wind: Calm
Temperature: 36°F , 2°C
Dew Point: 34°F , 1°C
Humidity: 93%
Barometer: 29.94 inHg , 1013.9 hPa
Clouds: Overcast
Visibility: 10 miles , 16 km
Cloud details: Overcast 2500 ft
2019/11/20 12:45 KSWF 201245Z 00000KT 10SM OVC025 02/01 A2994
KBAF - Westfield, Massachusetts, USA
Distance from station: NNE 50mi, 80km
Updated: Wed, 20-Nov-2019 7:20am EST
Mist, Overcast
Mist, Overcast
 Wind from NNE
Wind: NNE 7 mph , 11 km/h
Temperature: 37°F , 3°C
Wind Chill: 32°F , 0°C
Dew Point: 36°F , 2°C
Humidity: 93%
Barometer: 29.90 inHg , 1012.5 hPa
Summary: Mist
Clouds: Overcast
Visibility: 4 miles , 6 km
Cloud details: Overcast 600 ft
2019/11/20 12:20 KBAF 201220Z 02006KT 4SM BR OVC006 03/02 A2990 RMK AO2 CIG 004V008 T00330022